createdAt,value
2024-02-29T00:01:54.357Z,10.10
2024-02-29T00:04:24.135Z,9.73
2024-02-29T00:06:53.869Z,8.70
2024-02-29T00:09:23.532Z,9.03
2024-02-29T00:11:53.605Z,9.67
2024-02-29T00:14:23.232Z,9.80
2024-02-29T00:16:55.559Z,9.43
2024-02-29T00:19:25.310Z,10.07
2024-02-29T00:21:55.405Z,10.60
2024-02-29T00:24:25.122Z,9.60
2024-02-29T00:26:54.827Z,10.23
2024-02-29T00:29:28.295Z,9.07
2024-02-29T00:32:02.331Z,10.80
2024-02-29T00:34:32.301Z,13.20
2024-02-29T00:37:01.962Z,14.23
2024-02-29T00:39:31.736Z,10.07
2024-02-29T00:42:01.412Z,9.43
2024-02-29T00:44:31.091Z,9.33
2024-02-29T00:47:03.385Z,10.50
2024-02-29T00:49:33.408Z,9.97
2024-02-29T00:52:03.044Z,9.87
2024-02-29T00:54:32.785Z,10.50
2024-02-29T00:56:59.813Z,11.47
2024-02-29T00:59:29.460Z,9.93
2024-02-29T01:01:59.584Z,10.50
2024-02-29T01:04:31.891Z,10.73
2024-02-29T01:07:01.591Z,10.23
2024-02-29T01:09:31.286Z,10.00
2024-02-29T01:12:00.947Z,9.73
2024-02-29T01:14:33.562Z,10.30
2024-02-29T01:17:03.194Z,9.33
2024-02-29T01:19:35.498Z,10.70
2024-02-29T01:22:05.996Z,10.03
2024-02-29T01:24:35.831Z,9.97
2024-02-29T01:27:05.504Z,9.47
2024-02-29T01:29:35.363Z,10.03
2024-02-29T01:32:15.284Z,10.37
2024-02-29T01:34:51.242Z,10.47
2024-02-29T01:37:20.961Z,9.17
2024-02-29T01:39:50.635Z,10.33
2024-02-29T01:42:20.351Z,9.57
2024-02-29T01:44:56.383Z,10.13
2024-02-29T01:47:26.373Z,9.83
2024-02-29T01:50:00.957Z,9.93
2024-02-29T01:52:30.856Z,10.10
2024-02-29T01:55:00.578Z,9.63
2024-02-29T01:57:30.768Z,10.63
2024-02-29T02:00:00.647Z,11.00
2024-02-29T02:02:30.372Z,10.23
2024-02-29T02:05:02.674Z,9.80
2024-02-29T02:07:32.601Z,11.07
2024-02-29T02:10:02.285Z,11.33
2024-02-29T02:12:32.006Z,10.73
2024-02-29T02:15:03.389Z,9.67
2024-02-29T02:17:33.874Z,10.00
2024-02-29T02:20:08.363Z,9.53
2024-02-29T02:22:40.760Z,10.23
2024-02-29T02:25:10.686Z,10.47
2024-02-29T02:27:41.356Z,10.23
2024-02-29T02:30:11.609Z,9.83
2024-02-29T02:32:41.652Z,11.30
2024-02-29T02:35:14.449Z,10.83
2024-02-29T02:37:46.860Z,11.67
2024-02-29T02:40:16.820Z,10.40
2024-02-29T02:42:46.479Z,9.93
2024-02-29T02:45:16.126Z,10.27
2024-02-29T02:47:45.969Z,10.00
2024-02-29T02:50:15.874Z,10.33
2024-02-29T02:52:48.193Z,10.30
2024-02-29T02:55:17.970Z,9.43
2024-02-29T02:57:47.720Z,11.70
2024-02-29T03:00:17.631Z,10.23
2024-02-29T03:02:47.285Z,10.70
2024-02-29T03:05:17.286Z,10.03
2024-02-29T03:07:49.632Z,10.83
2024-02-29T03:10:19.462Z,10.43
2024-02-29T03:12:50.474Z,10.77
2024-02-29T03:15:20.319Z,11.00
2024-02-29T03:17:49.962Z,10.70
2024-02-29T03:20:19.821Z,10.70
2024-02-29T03:22:52.344Z,9.90
2024-02-29T03:25:22.464Z,10.20
2024-02-29T03:27:53.079Z,9.53
2024-02-29T03:30:22.816Z,11.50
2024-02-29T03:32:52.492Z,9.97
2024-02-29T03:35:22.363Z,8.77
2024-02-29T03:37:54.669Z,10.70
2024-02-29T03:40:24.532Z,10.23
2024-02-29T03:42:54.236Z,10.50
2024-02-29T03:45:23.889Z,9.60
2024-02-29T03:47:53.640Z,9.70
2024-02-29T03:50:25.478Z,10.67
2024-02-29T03:52:57.871Z,10.87
2024-02-29T03:55:27.530Z,10.80
2024-02-29T03:57:57.194Z,9.25
2024-02-29T04:00:26.915Z,10.80
2024-02-29T04:02:56.582Z,10.37
2024-02-29T04:05:27.577Z,10.80
2024-02-29T04:08:02.200Z,10.25
2024-02-29T04:10:31.922Z,9.93
2024-02-29T04:13:01.785Z,10.07
2024-02-29T04:15:31.604Z,9.55
2024-02-29T04:18:01.367Z,10.45
2024-02-29T04:20:33.737Z,9.80
2024-02-29T04:23:06.053Z,9.77
2024-02-29T04:25:35.790Z,9.60
2024-02-29T04:28:05.861Z,9.30
2024-02-29T04:30:36.315Z,9.23
2024-02-29T04:33:07.262Z,10.10
2024-02-29T04:35:37.377Z,9.48
2024-02-29T04:38:09.784Z,10.15
2024-02-29T04:40:39.511Z,10.18
2024-02-29T04:43:11.143Z,10.35
2024-02-29T04:45:40.957Z,9.65
2024-02-29T04:48:10.974Z,11.25
2024-02-29T04:50:40.772Z,10.32
2024-02-29T04:53:12.995Z,10.40
2024-02-29T04:55:42.710Z,12.18
2024-02-29T04:58:12.340Z,11.23
2024-02-29T05:00:43.583Z,11.00
2024-02-29T05:03:13.393Z,11.20
2024-02-29T05:05:43.042Z,11.15
2024-02-29T05:08:15.322Z,10.45
2024-02-29T05:10:45.323Z,10.38
2024-02-29T05:13:15.096Z,11.10
2024-02-29T05:15:44.874Z,9.43
2024-02-29T05:18:15.003Z,10.35
2024-02-29T05:20:45.300Z,10.57
2024-02-29T05:23:17.579Z,9.48
2024-02-29T05:25:47.343Z,9.88
2024-02-29T05:28:17.332Z,9.30
2024-02-29T05:30:47.399Z,11.00
2024-02-29T05:33:17.202Z,9.73
2024-02-29T05:35:52.256Z,11.55
2024-02-29T05:38:24.602Z,9.05
2024-02-29T05:40:54.401Z,10.55
2024-02-29T05:43:24.070Z,10.48
2024-02-29T05:45:53.858Z,10.15
2024-02-29T05:48:23.699Z,10.43
2024-02-29T05:50:53.419Z,9.68
2024-02-29T05:53:26.014Z,8.93
2024-02-29T05:55:55.762Z,9.35
2024-02-29T05:58:26.177Z,10.48
2024-02-29T06:00:56.069Z,9.35
2024-02-29T06:03:25.917Z,9.75
2024-02-29T06:05:55.583Z,10.23
2024-02-29T06:08:27.821Z,9.38
2024-02-29T06:10:57.522Z,9.20
2024-02-29T06:13:28.540Z,8.85
2024-02-29T06:15:59.333Z,9.88
2024-02-29T06:18:29.029Z,10.15
2024-02-29T06:20:58.662Z,9.68
2024-02-29T06:23:30.987Z,10.93
2024-02-29T06:26:01.529Z,10.30
2024-02-29T06:28:31.590Z,10.68
2024-02-29T06:31:02.481Z,10.48
2024-02-29T06:33:32.234Z,10.18
2024-02-29T06:36:02.082Z,11.13
2024-02-29T06:38:34.477Z,11.05
2024-02-29T06:41:04.632Z,10.45
2024-02-29T06:43:34.382Z,11.10
2024-02-29T06:46:06.815Z,10.43
2024-02-29T06:48:36.817Z,10.63
2024-02-29T06:51:06.765Z,10.20
2024-02-29T06:53:39.659Z,9.38
2024-02-29T06:56:09.534Z,9.88
2024-02-29T06:58:39.279Z,10.93
2024-02-29T07:01:09.115Z,10.82
2024-02-29T07:03:38.949Z,9.82
2024-02-29T07:06:08.992Z,9.52
2024-02-29T07:08:41.323Z,10.07
2024-02-29T07:11:13.271Z,9.38
2024-02-29T07:13:43.331Z,10.77
2024-02-29T07:16:14.778Z,10.75
2024-02-29T07:18:44.771Z,10.02
2024-02-29T07:21:14.505Z,9.18
2024-02-29T07:23:46.837Z,8.88
2024-02-29T07:26:16.936Z,9.55
2024-02-29T07:28:46.655Z,10.10
2024-02-29T07:31:16.992Z,9.63
2024-02-29T07:33:47.773Z,10.52
2024-02-29T07:36:17.849Z,9.52
2024-02-29T07:38:50.705Z,9.10
2024-02-29T07:41:21.641Z,11.07
2024-02-29T07:43:51.334Z,9.60
2024-02-29T07:46:21.109Z,10.07
2024-02-29T07:48:51.669Z,10.52
2024-02-29T07:51:21.703Z,10.45
2024-02-29T07:53:54.166Z,10.93
2024-02-29T07:56:25.771Z,11.00
2024-02-29T07:58:56.674Z,10.85
2024-02-29T08:01:26.440Z,10.95
2024-02-29T08:03:56.282Z,10.48
2024-02-29T08:06:26.020Z,10.45
2024-02-29T08:08:58.493Z,11.02
2024-02-29T08:11:29.737Z,9.85
2024-02-29T08:13:59.591Z,10.23
2024-02-29T08:16:30.769Z,10.48
2024-02-29T08:19:00.660Z,10.00
2024-02-29T08:21:35.394Z,10.15
2024-02-29T08:24:08.927Z,9.77
2024-02-29T08:26:38.773Z,10.98
2024-02-29T08:29:08.482Z,10.32
2024-02-29T08:31:38.235Z,10.45
2024-02-29T08:34:07.940Z,11.15
2024-02-29T08:36:37.795Z,11.15
2024-02-29T08:39:10.068Z,10.10
2024-02-29T08:41:37.270Z,10.27
2024-02-29T08:44:07.506Z,10.73
2024-02-29T08:46:37.239Z,11.05
2024-02-29T08:49:08.806Z,11.18
2024-02-29T08:51:38.686Z,10.85
2024-02-29T08:54:11.087Z,10.13
2024-02-29T08:56:40.830Z,10.27
2024-02-29T08:59:10.744Z,10.15
2024-02-29T09:01:41.482Z,10.32
2024-02-29T09:04:11.352Z,10.50
2024-02-29T09:06:41.735Z,10.45
2024-02-29T09:09:14.756Z,9.80
2024-02-29T09:11:44.527Z,14.32
2024-02-29T09:14:14.373Z,11.00
2024-02-29T09:16:44.528Z,18.92
2024-02-29T09:19:14.559Z,12.50
2024-02-29T09:21:44.357Z,12.40
2024-02-29T09:24:16.742Z,11.52
2024-02-29T09:26:46.486Z,11.00
2024-02-29T09:29:16.226Z,12.70
2024-02-29T09:31:46.471Z,11.30
2024-02-29T09:34:16.175Z,10.57
2024-02-29T09:36:47.031Z,10.55
2024-02-29T09:39:19.480Z,10.68
2024-02-29T09:42:08.031Z,11.25
2024-02-29T09:44:39.395Z,10.32
2024-02-29T09:47:09.380Z,9.90
2024-02-29T09:49:39.108Z,10.20
2024-02-29T09:52:10.992Z,9.98
2024-02-29T09:54:43.864Z,10.90
2024-02-29T09:57:14.180Z,10.68
2024-02-29T09:59:45.017Z,9.07
2024-02-29T10:02:17.854Z,9.75
2024-02-29T10:04:49.776Z,10.52
2024-02-29T10:07:19.605Z,10.05
2024-02-29T10:09:51.990Z,9.82
2024-02-29T10:12:22.673Z,10.40
2024-02-29T10:15:01.738Z,11.43
2024-02-29T10:17:35.647Z,10.38
2024-02-29T10:20:06.090Z,9.63
2024-02-29T10:22:35.861Z,9.38
2024-02-29T10:25:13.516Z,9.52
2024-02-29T10:27:43.836Z,9.93
2024-02-29T10:30:14.392Z,8.73
2024-02-29T10:32:45.019Z,9.80
2024-02-29T10:35:21.257Z,9.85
2024-02-29T10:37:51.371Z,10.50
2024-02-29T10:40:25.108Z,10.07
2024-02-29T10:42:56.711Z,9.65
2024-02-29T10:45:28.949Z,9.55
2024-02-29T10:48:01.468Z,10.35
2024-02-29T10:50:33.276Z,8.20
2024-02-29T10:53:11.444Z,9.45
2024-02-29T10:55:51.031Z,9.25
2024-02-29T10:58:25.792Z,9.52
2024-02-29T11:00:55.901Z,9.63
2024-02-29T11:03:25.981Z,8.73
2024-02-29T11:05:56.095Z,9.60
2024-02-29T11:08:26.301Z,9.23
2024-02-29T11:11:01.541Z,8.65
2024-02-29T11:13:31.955Z,9.15
2024-02-29T11:16:01.656Z,9.75
2024-02-29T11:18:34.107Z,9.45
2024-02-29T11:21:07.504Z,9.25
2024-02-29T11:23:37.612Z,9.32
2024-02-29T11:26:13.214Z,9.38
2024-02-29T11:28:44.876Z,8.20
2024-02-29T11:31:15.970Z,9.32
2024-02-29T11:33:47.761Z,9.45
2024-02-29T11:36:18.169Z,10.23
2024-02-29T11:38:48.323Z,9.13
2024-02-29T11:41:21.753Z,9.93
2024-02-29T11:43:51.743Z,9.75
2024-02-29T11:46:21.616Z,9.38
2024-02-29T11:48:57.090Z,10.10
2024-02-29T11:51:29.755Z,9.45
2024-02-29T11:54:00.045Z,9.48
2024-02-29T11:56:33.641Z,8.82
2024-02-29T11:59:05.005Z,8.93
2024-02-29T12:01:34.928Z,8.57
2024-02-29T12:04:06.233Z,8.93
2024-02-29T12:06:37.000Z,9.40
2024-02-29T12:09:08.187Z,9.70
2024-02-29T12:11:40.954Z,9.32
2024-02-29T12:14:11.371Z,10.52
2024-02-29T12:16:42.436Z,9.15
2024-02-29T12:19:12.201Z,9.75
2024-02-29T12:21:41.957Z,9.20
2024-02-29T12:24:11.690Z,8.38
2024-02-29T12:26:44.051Z,9.43
2024-02-29T12:29:15.387Z,8.77
2024-02-29T12:31:45.438Z,9.48
2024-02-29T12:34:15.176Z,9.57
2024-02-29T12:36:49.310Z,8.77
2024-02-29T12:39:21.581Z,8.65
2024-02-29T12:41:54.047Z,8.02
2024-02-29T12:44:25.205Z,7.88
2024-02-29T12:46:57.383Z,7.97
2024-02-29T12:49:27.575Z,8.70
2024-02-29T12:51:57.370Z,8.75
2024-02-29T12:54:27.067Z,7.60
2024-02-29T12:56:59.384Z,7.63
2024-02-29T12:59:29.116Z,7.53
2024-02-29T13:02:01.132Z,7.53
2024-02-29T13:04:31.009Z,7.85
2024-02-29T13:07:00.797Z,7.90
2024-02-29T13:09:30.541Z,7.45
2024-02-29T13:12:02.958Z,7.53
2024-02-29T13:14:32.858Z,7.45
2024-02-29T13:17:03.108Z,8.02
2024-02-29T13:19:32.908Z,7.72
2024-02-29T13:22:02.673Z,7.57
2024-02-29T13:24:32.630Z,7.28
2024-02-29T13:27:05.060Z,7.72
2024-02-29T13:29:35.308Z,7.40
2024-02-29T13:32:05.720Z,8.45
2024-02-29T13:34:35.768Z,8.02
2024-02-29T13:37:05.729Z,8.10
2024-02-29T13:39:35.385Z,8.30
2024-02-29T13:42:09.025Z,7.57
2024-02-29T13:44:38.912Z,8.20
2024-02-29T13:47:09.050Z,7.88
2024-02-29T13:49:38.963Z,8.32
2024-02-29T13:52:08.982Z,7.35
2024-02-29T13:54:39.014Z,7.13
2024-02-29T13:57:11.414Z,8.07
2024-02-29T13:59:41.482Z,7.65
2024-02-29T14:02:12.357Z,7.43
2024-02-29T14:04:42.238Z,7.13
2024-02-29T14:07:12.045Z,8.48
2024-02-29T14:09:41.768Z,8.75
2024-02-29T14:12:14.179Z,8.18
2024-02-29T14:14:43.933Z,7.25
2024-02-29T14:17:13.768Z,7.65
2024-02-29T14:19:43.436Z,6.85
2024-02-29T14:22:13.721Z,7.00
2024-02-29T14:24:44.020Z,7.70
2024-02-29T14:27:17.085Z,7.78
2024-02-29T14:29:47.566Z,7.63
2024-02-29T14:32:17.614Z,8.07
2024-02-29T14:34:48.393Z,8.05
2024-02-29T14:37:18.505Z,7.70
2024-02-29T14:39:49.379Z,6.75
2024-02-29T14:42:21.764Z,7.68
2024-02-29T14:44:52.074Z,7.07
2024-02-29T14:47:22.008Z,7.47
2024-02-29T14:49:51.744Z,7.45
2024-02-29T14:52:21.689Z,7.45
2024-02-29T14:54:51.459Z,7.53
2024-02-29T14:57:23.817Z,7.50
2024-02-29T14:59:53.684Z,6.50
2024-02-29T15:02:25.078Z,7.53
2024-02-29T15:04:55.340Z,7.10
2024-02-29T15:07:25.336Z,8.30
2024-02-29T15:09:55.428Z,8.15
2024-02-29T15:12:27.817Z,7.72
2024-02-29T15:14:58.488Z,6.95
2024-02-29T15:17:31.351Z,7.82
2024-02-29T15:20:02.624Z,8.00
2024-02-29T15:22:32.441Z,6.72
2024-02-29T15:25:02.206Z,8.02
2024-02-29T15:27:39.723Z,6.78
2024-02-29T15:30:11.114Z,7.07
2024-02-29T15:32:40.906Z,7.65
2024-02-29T15:35:11.295Z,7.20
2024-02-29T15:37:41.033Z,6.50
2024-02-29T15:40:12.195Z,7.00
2024-02-29T15:42:44.848Z,6.20
2024-02-29T15:45:14.822Z,6.80
2024-02-29T15:47:44.776Z,6.85
2024-02-29T15:50:14.474Z,6.78
2024-02-29T15:52:44.148Z,7.47
2024-02-29T15:55:14.207Z,7.05
2024-02-29T15:57:46.680Z,7.32
2024-02-29T16:00:17.347Z,7.18
2024-02-29T16:02:47.084Z,8.68
2024-02-29T16:05:16.825Z,7.63
2024-02-29T16:07:46.593Z,7.78
2024-02-29T16:10:16.436Z,7.80
2024-02-29T16:12:49.765Z,7.40
2024-02-29T16:15:19.963Z,8.02
2024-02-29T16:17:49.774Z,8.23
2024-02-29T16:20:19.720Z,8.38
2024-02-29T16:22:50.139Z,7.82
2024-02-29T16:25:22.222Z,6.75
2024-02-29T16:27:55.101Z,8.35
2024-02-29T16:30:24.953Z,7.78
2024-02-29T16:32:54.901Z,7.88
2024-02-29T16:35:24.644Z,7.63
2024-02-29T16:37:57.169Z,8.73
2024-02-29T16:40:28.258Z,8.82
2024-02-29T16:43:00.642Z,9.20
2024-02-29T16:45:30.575Z,10.88
2024-02-29T16:48:00.416Z,13.80
2024-02-29T16:50:30.150Z,9.68
2024-02-29T16:52:59.956Z,10.40
2024-02-29T16:55:29.690Z,11.07
2024-02-29T16:58:05.160Z,9.93
2024-02-29T17:00:35.039Z,10.38
2024-02-29T17:03:04.791Z,9.85
2024-02-29T17:05:35.132Z,8.77
2024-02-29T17:08:05.745Z,9.48
2024-02-29T17:10:35.515Z,8.85
2024-02-29T17:13:07.936Z,9.35
2024-02-29T17:15:38.507Z,9.23
2024-02-29T17:18:08.485Z,8.85
2024-02-29T17:20:38.302Z,8.38
2024-02-29T17:23:08.714Z,9.20
2024-02-29T17:25:39.474Z,8.95
2024-02-29T17:28:12.058Z,9.32
2024-02-29T17:30:42.315Z,9.55
2024-02-29T17:33:12.222Z,8.85
2024-02-29T17:35:42.037Z,9.25
2024-02-29T17:38:11.782Z,9.43
2024-02-29T17:40:41.518Z,10.10
2024-02-29T17:43:17.066Z,10.48
2024-02-29T17:45:48.071Z,9.27
2024-02-29T17:48:18.973Z,16.13
2024-02-29T17:50:48.841Z,9.68
2024-02-29T17:53:18.635Z,9.55
2024-02-29T17:55:48.457Z,10.88
2024-02-29T17:58:21.088Z,10.15
2024-02-29T18:00:51.072Z,9.00
2024-02-29T18:03:20.931Z,8.77
2024-02-29T18:05:50.636Z,8.80
2024-02-29T18:08:20.341Z,8.88
2024-02-29T18:10:50.576Z,9.15
2024-02-29T18:13:23.047Z,8.68
2024-02-29T18:15:53.451Z,9.38
2024-02-29T18:18:23.454Z,9.45
2024-02-29T18:20:53.290Z,8.88
2024-02-29T18:23:23.973Z,9.13
2024-02-29T18:25:56.895Z,8.43
2024-02-29T18:28:29.601Z,8.40
2024-02-29T18:30:59.792Z,9.30
2024-02-29T18:33:29.725Z,8.02
2024-02-29T18:35:59.501Z,8.70
2024-02-29T18:38:29.704Z,9.07
2024-02-29T18:40:59.546Z,8.45
2024-02-29T18:43:32.046Z,8.80
2024-02-29T18:46:06.262Z,8.75
2024-02-29T18:48:37.140Z,8.27
2024-02-29T18:51:08.275Z,8.95
2024-02-29T18:53:38.040Z,8.15
2024-02-29T18:56:08.286Z,8.65
2024-02-29T18:58:40.773Z,8.93
2024-02-29T19:01:10.802Z,8.05
2024-02-29T19:03:40.659Z,8.65
2024-02-29T19:06:10.856Z,8.23
2024-02-29T19:08:40.691Z,9.25
2024-02-29T19:11:10.551Z,8.57
2024-02-29T19:13:42.902Z,10.07
2024-02-29T19:16:12.821Z,9.35
2024-02-29T19:18:42.733Z,9.35
2024-02-29T19:21:12.576Z,8.52
2024-02-29T19:23:42.862Z,9.98
2024-02-29T19:26:13.498Z,8.50
2024-02-29T19:28:46.081Z,9.38
2024-02-29T19:31:18.007Z,9.07
2024-02-29T19:33:48.190Z,9.15
2024-02-29T19:36:18.093Z,8.93
2024-02-29T19:38:47.907Z,9.88
2024-02-29T19:41:19.164Z,9.07
2024-02-29T19:43:51.662Z,8.38
2024-02-29T19:46:21.609Z,8.30
2024-02-29T19:48:51.382Z,9.98
2024-02-29T19:51:21.270Z,8.77
2024-02-29T19:53:50.991Z,9.30
2024-02-29T19:56:21.099Z,9.07
2024-02-29T19:58:53.479Z,8.10
2024-02-29T20:01:25.147Z,8.57
2024-02-29T20:03:55.063Z,8.93
2024-02-29T20:06:25.090Z,9.18
2024-02-29T20:08:54.761Z,9.23
2024-02-29T20:11:24.539Z,8.30
2024-02-29T20:13:56.984Z,8.05
2024-02-29T20:16:27.049Z,8.57
2024-02-29T20:18:56.886Z,8.45
2024-02-29T20:21:26.616Z,8.18
2024-02-29T20:23:56.353Z,9.00
2024-02-29T20:26:27.202Z,8.68
2024-02-29T20:29:01.244Z,7.90
2024-02-29T20:31:33.383Z,8.63
2024-02-29T20:34:03.362Z,8.00
2024-02-29T20:36:33.580Z,7.25
2024-02-29T20:39:03.257Z,8.13
2024-02-29T20:41:33.000Z,8.85
2024-02-29T20:44:05.383Z,8.90
2024-02-29T20:46:35.593Z,8.18
2024-02-29T20:49:05.481Z,9.73
2024-02-29T20:51:35.197Z,10.32
2024-02-29T20:54:05.118Z,11.45
2024-02-29T20:56:34.832Z,11.77
2024-02-29T20:59:07.302Z,10.85
2024-02-29T21:01:37.514Z,11.35
2024-02-29T21:04:07.361Z,11.18
2024-02-29T21:06:37.050Z,10.15
2024-02-29T21:09:06.940Z,9.05
2024-02-29T21:11:36.736Z,8.77
2024-02-29T21:14:09.547Z,8.43
2024-02-29T21:16:39.509Z,7.80
2024-02-29T21:19:09.339Z,7.32
2024-02-29T21:21:39.100Z,7.53
2024-02-29T21:24:09.103Z,9.05
2024-02-29T21:26:38.886Z,8.15
2024-02-29T21:29:11.340Z,9.77
2024-02-29T21:31:41.119Z,9.98
2024-02-29T21:34:10.828Z,8.68
2024-02-29T21:36:40.666Z,9.10
2024-02-29T21:39:11.391Z,10.80
2024-02-29T21:41:41.199Z,10.65
2024-02-29T21:44:14.197Z,8.85
2024-02-29T21:46:43.941Z,8.73
2024-02-29T21:49:13.763Z,9.73
2024-02-29T21:51:43.682Z,9.50
2024-02-29T21:54:15.296Z,10.75
2024-02-29T21:56:45.060Z,10.18
2024-02-29T21:59:17.390Z,11.38
2024-02-29T22:01:47.990Z,9.68
2024-02-29T22:04:17.931Z,9.13
2024-02-29T22:06:48.282Z,9.10
2024-02-29T22:09:18.159Z,8.82
2024-02-29T22:11:47.959Z,9.35
2024-02-29T22:14:22.189Z,8.63
2024-02-29T22:16:52.893Z,9.85
2024-02-29T22:19:23.760Z,8.98
2024-02-29T22:21:53.673Z,9.40
2024-02-29T22:24:23.423Z,9.57
2024-02-29T22:26:53.952Z,10.68
2024-02-29T22:29:26.263Z,10.73
2024-02-29T22:31:56.047Z,10.65
2024-02-29T22:34:25.868Z,9.73
2024-02-29T22:36:55.738Z,8.52
2024-02-29T22:39:25.443Z,7.55
2024-02-29T22:42:00.932Z,7.28
2024-02-29T22:44:36.020Z,7.72
2024-02-29T22:47:05.748Z,7.05
2024-02-29T22:49:35.554Z,9.40
2024-02-29T22:52:05.445Z,8.63
2024-02-29T22:54:35.243Z,9.13
2024-02-29T22:57:05.049Z,9.90
2024-02-29T22:59:38.467Z,9.10
2024-02-29T23:02:08.494Z,10.25
2024-02-29T23:04:38.313Z,10.00
2024-02-29T23:07:08.356Z,9.30
2024-02-29T23:09:38.159Z,8.55
2024-02-29T23:12:08.141Z,8.98
2024-02-29T23:14:40.454Z,8.70
2024-02-29T23:17:10.218Z,8.63
2024-02-29T23:19:39.889Z,10.82
2024-02-29T23:22:09.790Z,10.52
2024-02-29T23:24:40.403Z,10.88
2024-02-29T23:27:10.240Z,11.50
2024-02-29T23:29:42.528Z,10.77
2024-02-29T23:32:12.458Z,9.63
2024-02-29T23:34:42.148Z,8.57
2024-02-29T23:37:11.868Z,8.60
2024-02-29T23:39:41.726Z,8.85
2024-02-29T23:42:11.557Z,9.88
2024-02-29T23:44:46.664Z,9.80
2024-02-29T23:47:16.920Z,9.37
2024-02-29T23:49:46.843Z,9.18
2024-02-29T23:52:16.628Z,10.10
2024-02-29T23:54:47.141Z,9.23
2024-02-29T23:57:17.199Z,9.50
2024-02-29T23:59:49.606Z,8.90
